Klemme/'s Corner

Nearby METAR Reports

 

KI67 - Harrison, Ohio, USA
Distance from station: ESE 14mi, 23km
Updated: Mon, 27-Jun-2022 11:15am EDT
Clear
Clear
 Wind from NNE
Wind: NNE 6 mph , 9 km/h
Temperature: 72°F , 22°C
Dew Point: 50°F , 10°C
Humidity: 47%
Barometer: 30.22 inHg , 1023.4 hPa
Clouds: Clear
Visibility: 10 miles , 16 km
2022/06/27 15:15 KI67 271515Z AUTO 03005KT 10SM CLR 22/10 A3022 RMK AO1
KHAO - Hamilton, Ohio, USA
Distance from station: E 26mi, 42km
Updated: Mon, 27-Jun-2022 10:53am EDT
Clear
Clear
 Wind from varies
Wind: varies 7 mph , 11 km/h
Temperature: 73°F , 23°C
Dew Point: 50°F , 10°C
Humidity: 44%
Barometer: 30.23 inHg , 1023.7 hPa
Clouds: Clear
Visibility: 10 miles , 16 km
2022/06/27 14:53 KHAO 271453Z AUTO VRB06KT 10SM CLR 23/10 A3023 RMK AO2 SLP232 T02330100 51013
 
KCVG - Covington, Kentucky, USA
Distance from station: SE 28mi, 45km
Updated: Mon, 27-Jun-2022 10:52am EDT
Few Clouds
Few Clouds
 Wind from NE
Wind: NE 9 mph , 15 km/h
Temperature: 73°F , 23°C
Dew Point: 48°F , 9°C
Humidity: 41%
Barometer: 30.22 inHg , 1023.4 hPa
Clouds: Few Clouds
Visibility: 10 miles , 16 km
Cloud details: Few Clouds 25000 ft
2022/06/27 14:52 KCVG 271452Z 04008KT 10SM FEW250 23/09 A3022 RMK AO2 SLP224 T02330094 51014
KRID - Richmond, Indiana, USA
Distance from station: NNE 29mi, 46km
Updated: Mon, 27-Jun-2022 11:35am EDT
Clear
Clear
 Wind from NNW
Wind: NNW 8 mph , 13 km/h
Temperature: 70°F , 21°C
Dew Point: 50°F , 10°C
Humidity: 50%
Barometer: 30.23 inHg , 1023.7 hPa
Clouds: Clear
Visibility: 10 miles , 16 km
2022/06/27 15:35 KRID 271535Z AUTO 33007KT 10SM CLR 21/10 A3023 RMK AO2
 
KMWO - Middletown/Hook, Ohio, USA
Distance from station: ENE 35mi, 56km
Updated: Mon, 27-Jun-2022 11:15am EDT
Clear
Clear
 Wind from N
Wind: N 7 mph , 11 km/h
Temperature: 73°F , 23°C
Dew Point: 46°F , 8°C
Humidity: 38%
Barometer: 30.23 inHg , 1023.7 hPa
Clouds: Clear
Visibility: 10 miles , 16 km
2022/06/27 15:15 KMWO 271515Z AUTO 36006KT 10SM CLR 23/08 A3023 RMK AO2 T02300078
KLUK - Cincinnat/Lunken, Ohio, USA
Distance from station: ESE 36mi, 58km
Updated: Mon, 27-Jun-2022 10:53am EDT
Clear
Clear
 Wind from NE
Wind: NE 10 mph , 17 km/h
Temperature: 73°F , 23°C
Dew Point: 52°F , 11°C
Humidity: 47%
Barometer: 30.22 inHg , 1023.4 hPa
Clouds: Clear
Visibility: 10 miles , 16 km
2022/06/27 14:53 KLUK 271453Z 04009KT 10SM CLR 23/11 A3022 RMK AO2 SLP227 T02330106 51013
 
KMGY - Dayton, Ohio, USA
Distance from station: ENE 45mi, 72km
Updated: Mon, 27-Jun-2022 10:53am EDT
Clear
Clear
 Wind from N
Wind: N 9 mph , 15 km/h
Temperature: 73°F , 23°C
Dew Point: 46°F , 8°C
Humidity: 38%
Barometer: 30.21 inHg , 1023 hPa
Clouds: Clear
Visibility: 10 miles , 16 km
2022/06/27 14:53 KMGY 271453Z AUTO 36008KT 10SM CLR 23/08 A3021 RMK AO2 SLP221 T02280083 51012
KGEZ - Shelbyville, Indiana, USA
Distance from station: WNW 45mi, 73km
Updated: Mon, 27-Jun-2022 10:53am EDT
Clear
Clear
 Wind from N
Wind: N 6 mph , 9 km/h, Gust: 17 mph , 28 km/h
Temperature: 75°F , 24°C
Dew Point: 50°F , 10°C
Humidity: 41%
Barometer: 30.22 inHg , 1023.4 hPa
Clouds: Clear
Visibility: 10 miles , 16 km
2022/06/27 14:53 KGEZ 271453Z AUTO 01005G15KT 10SM CLR 24/10 A3022 RMK AO2 SLP229 T02440100 51012
 
KI69 - Batavia, Ohio, USA
Distance from station: ESE 46mi, 74km
Updated: Mon, 27-Jun-2022 11:15am EDT
Clear
Clear
 Wind from ENE
Wind: ENE 5 mph , 7 km/h
Temperature: 73°F , 23°C
Dew Point: 46°F , 8°C
Humidity: 38%
Barometer: 30.23 inHg , 1023.7 hPa
Clouds: Clear
Visibility: 10 miles , 16 km
2022/06/27 15:15 KI69 271515Z AUTO 07004KT 10SM CLR 23/08 A3023 RMK AO2 T02260084
KIMS - Madison, Indiana, USA
Distance from station: SSW 48mi, 76km
Updated: Mon, 27-Jun-2022 11:15am EDT
Clear
Clear
 Wind from N
Wind: N 5 mph , 7 km/h
Temperature: 73°F , 23°C
Dew Point: 50°F , 10°C
Humidity: 44%
Barometer: 30.25 inHg , 1024.4 hPa
Clouds: Clear
Visibility: 10 miles , 16 km
2022/06/27 15:15 KIMS 271515Z AUTO 01004KT 10SM CLR 23/10 A3025 RMK AO2
 
KBAK - Columbus/Balkala, Indiana, USA
Distance from station: W 48mi, 78km
Updated: Mon, 27-Jun-2022 10:58am EDT
Partly cloudy
Partly cloudy
 Wind from NNW
Wind: NNW 5 mph , 7 km/h
Temperature: 72°F , 22°C
Dew Point: 50°F , 10°C
Humidity: 47%
Barometer: 30.24 inHg , 1024 hPa
Clouds: Partly cloudy
Visibility: 10 miles , 16 km
Cloud details: Partly cloudy 2500 ft
2022/06/27 14:58 KBAK 271458Z 33004KT 10SM SCT025 22/10 A3024